Time;durP1;ratioP1;P1;durP2;ratioP2;P2;SDS_P1;SDS_P2;PMS_P1;PMS_P2;Temp;Humidity;BMP_temperature;BMP_pressure;BME280_temperature;BME280_humidity;BME280_pressure;Samples;Min_cycle;Max_cycle;Signal;HPM_P1;HPM_P2
2022/03/23 00:01:55;;;;;;;14.77;10.53;;;;;;;;;;5113733;28;20450;-70
2022/03/23 00:04:23;;;;;;;14.53;10.43;;;;;;;;;;5113304;28;20477;-70
2022/03/23 00:06:51;;;;;;;17.57;10.27;;;;;;;;;;5107145;28;20451;-70
2022/03/23 00:09:18;;;;;;;16.50;10.70;;;;;;;;;;5105368;28;20578;-70
2022/03/23 00:11:46;;;;;;;13.27;10.97;;;;;;;;;;5105485;28;20530;-70
2022/03/23 00:14:13;;;;;;;14.87;10.73;;;;;;;;;;5101182;28;20536;-70
2022/03/23 00:16:41;;;;;;;15.10;10.27;;;;;;;;;;5098424;28;20536;-71
2022/03/23 00:19:08;;;;;;;21.63;11.40;;;;;;;;;;5113429;28;20473;-71
2022/03/23 00:21:36;;;;;;;16.30;10.40;;;;;;;;;;5098891;28;20451;-70
2022/03/23 00:24:04;;;;;;;20.90;12.77;;;;;;;;;;5113389;28;20453;-71
2022/03/23 00:26:32;;;;;;;12.33;9.50;;;;;;;;;;5098266;28;20442;-70
2022/03/23 00:28:59;;;;;;;17.20;10.00;;;;;;;;;;5113285;28;20449;-72
2022/03/23 00:31:26;;;;;;;15.23;11.10;;;;;;;;;;5098803;28;20479;-71
2022/03/23 00:33:54;;;;;;;20.27;10.70;;;;;;;;;;5102693;28;21009;-71
2022/03/23 00:36:23;;;;;;;18.00;12.23;;;;;;;;;;5108726;28;20458;-70
2022/03/23 00:38:53;;;;;;;17.87;11.80;;;;;;;;;;5112018;28;20940;-70
2022/03/23 00:41:22;;;;;;;13.60;10.57;;;;;;;;;;5112579;28;20455;-71
2022/03/23 00:43:49;;;;;;;17.00;10.80;;;;;;;;;;5112358;28;20459;-70
2022/03/23 00:46:16;;;;;;;13.10;9.97;;;;;;;;;;5106242;28;20466;-71
2022/03/23 00:48:44;;;;;;;13.50;9.50;;;;;;;;;;5104411;28;20449;-70
2022/03/23 00:51:11;;;;;;;16.60;10.50;;;;;;;;;;5112305;28;20480;-71
2022/03/23 00:53:38;;;;;;;14.63;9.63;;;;;;;;;;5111880;28;20999;-71
2022/03/23 00:56:06;;;;;;;17.23;10.23;;;;;;;;;;5105506;28;20476;-71
2022/03/23 00:58:34;;;;;;;15.33;10.70;;;;;;;;;;5110782;28;20544;-70
2022/03/23 01:01:02;;;;;;;17.97;9.67;;;;;;;;;;5108543;28;20484;-71
2022/03/23 01:03:29;;;;;;;15.23;9.23;;;;;;;;;;5111670;28;20458;-70
2022/03/23 01:05:56;;;;;;;11.73;9.27;;;;;;;;;;5105115;28;20539;-71
2022/03/23 01:08:23;;;;;;;15.30;9.60;;;;;;;;;;5107767;28;20448;-70
2022/03/23 01:10:50;;;;;;;14.30;9.90;;;;;;;;;;5111107;28;20507;-70
2022/03/23 01:13:18;;;;;;;12.73;9.60;;;;;;;;;;5098516;28;20559;-69
2022/03/23 01:15:46;;;;;;;17.13;10.10;;;;;;;;;;5111151;28;20447;-71
2022/03/23 01:18:14;;;;;;;12.60;8.73;;;;;;;;;;5111064;28;20452;-70
2022/03/23 01:20:41;;;;;;;13.90;10.53;;;;;;;;;;5109962;28;20454;-70
2022/03/23 01:23:08;;;;;;;15.17;10.23;;;;;;;;;;5111872;28;20451;-70
2022/03/23 01:25:35;;;;;;;13.43;9.83;;;;;;;;;;5110841;28;20463;-71
2022/03/23 01:28:02;;;;;;;14.63;9.50;;;;;;;;;;5111292;28;20483;-70
2022/03/23 01:30:30;;;;;;;16.77;10.43;;;;;;;;;;5111372;28;20475;-70
2022/03/23 01:32:58;;;;;;;23.03;11.00;;;;;;;;;;5110477;28;20812;-72
2022/03/23 01:35:26;;;;;;;14.93;9.53;;;;;;;;;;5099815;28;21000;-71
2022/03/23 01:37:53;;;;;;;12.27;9.07;;;;;;;;;;5108066;28;21002;-71
2022/03/23 01:40:20;;;;;;;15.07;10.63;;;;;;;;;;5101636;28;20530;-71
2022/03/23 01:42:47;;;;;;;15.83;9.90;;;;;;;;;;5110779;28;21242;-71
2022/03/23 01:45:15;;;;;;;15.87;10.10;;;;;;;;;;5110766;28;21031;-71
2022/03/23 01:47:43;;;;;;;14.33;9.53;;;;;;;;;;5097401;28;20453;-70
2022/03/23 01:50:11;;;;;;;16.90;10.03;;;;;;;;;;5105893;28;20476;-70
2022/03/23 01:52:39;;;;;;;16.07;10.13;;;;;;;;;;5110643;28;20444;-70
2022/03/23 01:55:07;;;;;;;13.53;9.30;;;;;;;;;;5110145;28;20463;-71
2022/03/23 01:57:35;;;;;;;13.40;10.23;;;;;;;;;;5110564;28;20531;-70
2022/03/23 02:00:05;;;;;;;19.80;9.10;;;;;;;;;;5111789;28;20705;-72
2022/03/23 02:02:32;;;;;;;14.50;9.17;;;;;;;;;;5110300;28;20451;-69
2022/03/23 02:04:59;;;;;;;11.27;8.60;;;;;;;;;;5110547;28;20483;-71
2022/03/23 02:07:29;;;;;;;16.67;10.53;;;;;;;;;;5098747;28;20450;-72
2022/03/23 02:09:56;;;;;;;12.30;8.90;;;;;;;;;;5066959;28;20559;-70
2022/03/23 02:12:23;;;;;;;12.03;7.53;;;;;;;;;;5111336;28;20447;-71
2022/03/23 02:14:51;;;;;;;10.60;8.50;;;;;;;;;;5109622;28;21036;-72
2022/03/23 02:17:18;;;;;;;14.87;9.90;;;;;;;;;;5111092;28;20453;-72
2022/03/23 02:19:45;;;;;;;14.90;9.40;;;;;;;;;;5107490;28;20531;-71
2022/03/23 02:22:14;;;;;;;14.50;9.57;;;;;;;;;;5110530;28;20531;-72
2022/03/23 02:24:42;;;;;;;10.63;8.13;;;;;;;;;;5109935;28;20471;-71
2022/03/23 02:27:09;;;;;;;13.10;10.13;;;;;;;;;;5110685;28;20536;-72
2022/03/23 02:29:36;;;;;;;10.10;8.93;;;;;;;;;;5099260;28;20479;-70
2022/03/23 02:32:05;;;;;;;17.90;8.30;;;;;;;;;;5099561;28;20578;-70
2022/03/23 02:34:32;;;;;;;15.10;8.80;;;;;;;;;;5107897;28;20950;-70
2022/03/23 02:36:59;;;;;;;11.20;8.93;;;;;;;;;;5110540;28;20478;-70
2022/03/23 02:39:28;;;;;;;15.60;9.13;;;;;;;;;;5103881;28;20533;-70
2022/03/23 02:41:56;;;;;;;12.40;8.10;;;;;;;;;;5110733;28;20466;-70
2022/03/23 02:44:25;;;;;;;14.60;9.50;;;;;;;;;;5106688;28;20456;-72
2022/03/23 02:46:53;;;;;;;11.70;8.63;;;;;;;;;;5099627;28;20541;-71
2022/03/23 02:49:20;;;;;;;10.63;7.87;;;;;;;;;;5109318;28;20813;-71
2022/03/23 02:51:48;;;;;;;13.43;9.67;;;;;;;;;;5110108;28;20796;-70
2022/03/23 03:02:38;;;;;;;13.83;9.23;;;;;;;;;;5103304;28;20423;-71
2022/03/23 03:05:05;;;;;;;13.10;9.37;;;;;;;;;;5103841;28;20448;-71
2022/03/23 03:08:44;;;;;;;12.57;8.87;;;;;;;;;;5109950;28;20496;-70
2022/03/23 03:10:20;;;;;;;12.00;8.43;;;;;;;;;;5098709;28;20483;-71
2022/03/23 03:12:49;;;;;;;10.57;8.83;;;;;;;;;;5099875;28;20449;-72
2022/03/23 03:15:18;;;;;;;12.50;9.13;;;;;;;;;;5106253;28;20444;-70
2022/03/23 03:17:46;;;;;;;12.53;8.50;;;;;;;;;;5100484;28;20502;-71
2022/03/23 03:20:14;;;;;;;13.40;8.60;;;;;;;;;;5108034;28;20471;-71
2022/03/23 03:22:42;;;;;;;12.00;8.40;;;;;;;;;;5110012;28;20465;-71
2022/03/23 03:25:12;;;;;;;12.67;9.00;;;;;;;;;;5096789;28;20485;-72
2022/03/23 03:27:40;;;;;;;12.73;9.80;;;;;;;;;;5112012;28;20524;-70
2022/03/23 03:30:10;;;;;;;15.83;10.10;;;;;;;;;;5113134;28;20544;-71
2022/03/23 03:35:40;;;;;;;13.20;7.40;;;;;;;;;;5103820;28;20409;-71
2022/03/23 03:38:08;;;;;;;13.73;8.10;;;;;;;;;;5113935;28;20450;-71
2022/03/23 03:40:35;;;;;;;13.30;8.13;;;;;;;;;;5100961;28;20506;-70
2022/03/23 03:43:02;;;;;;;11.70;8.87;;;;;;;;;;5106742;28;20977;-71
2022/03/23 03:45:31;;;;;;;10.80;7.57;;;;;;;;;;5109815;28;20496;-71
2022/03/23 03:47:58;;;;;;;13.07;9.03;;;;;;;;;;5107659;28;20459;-71
2022/03/23 03:50:26;;;;;;;12.53;8.43;;;;;;;;;;5097510;28;20482;-71
2022/03/23 03:52:53;;;;;;;13.30;9.07;;;;;;;;;;5113548;28;20500;-72
2022/03/23 03:55:20;;;;;;;14.37;10.03;;;;;;;;;;5113168;28;20986;-70
2022/03/23 03:57:47;;;;;;;14.90;10.30;;;;;;;;;;5099462;28;20853;-70
2022/03/23 04:00:15;;;;;;;13.63;8.47;;;;;;;;;;5113748;28;20443;-71
2022/03/23 04:02:43;;;;;;;12.50;8.40;;;;;;;;;;5112531;28;20952;-71
2022/03/23 04:05:11;;;;;;;10.23;7.90;;;;;;;;;;5099565;28;20452;-70
2022/03/23 04:07:38;;;;;;;14.80;9.30;;;;;;;;;;5112516;28;20454;-70
2022/03/23 04:10:06;;;;;;;13.03;7.87;;;;;;;;;;5113580;28;20534;-71
2022/03/23 04:12:33;;;;;;;15.53;9.43;;;;;;;;;;5104668;28;21068;-72
2022/03/23 04:15:00;;;;;;;13.57;9.73;;;;;;;;;;5105972;28;20451;-71
2022/03/23 04:17:28;;;;;;;10.97;8.20;;;;;;;;;;5100757;28;20765;-70
2022/03/23 04:19:56;;;;;;;14.57;9.30;;;;;;;;;;5110041;28;20550;-71
2022/03/23 04:22:23;;;;;;;11.90;8.63;;;;;;;;;;5100980;28;20455;-71
2022/03/23 04:24:51;;;;;;;21.60;8.80;;;;;;;;;;5110777;28;20941;-71
2022/03/23 04:27:18;;;;;;;12.10;8.23;;;;;;;;;;5100455;28;21036;-71
2022/03/23 04:29:45;;;;;;;14.10;9.40;;;;;;;;;;5109274;28;20469;-71
2022/03/23 04:32:13;;;;;;;13.97;8.87;;;;;;;;;;5112474;28;20594;-71
2022/03/23 04:34:40;;;;;;;16.90;9.07;;;;;;;;;;5104334;28;20451;-71
2022/03/23 04:37:08;;;;;;;17.33;8.63;;;;;;;;;;5112997;28;20439;-71
2022/03/23 04:39:36;;;;;;;13.00;8.63;;;;;;;;;;5096713;28;20535;-71
2022/03/23 04:42:03;;;;;;;12.30;9.43;;;;;;;;;;5103708;28;20492;-71
2022/03/23 04:44:30;;;;;;;14.23;8.30;;;;;;;;;;5111871;28;20537;-70
2022/03/23 04:46:57;;;;;;;15.27;10.70;;;;;;;;;;5112754;28;20535;-70
2022/03/23 04:49:24;;;;;;;13.13;9.43;;;;;;;;;;5111105;28;20533;-70
2022/03/23 04:51:51;;;;;;;22.93;11.00;;;;;;;;;;5111965;28;20482;-72
2022/03/23 04:54:20;;;;;;;16.83;10.10;;;;;;;;;;5105738;28;20471;-73
2022/03/23 04:56:47;;;;;;;23.03;10.80;;;;;;;;;;5104123;28;20799;-70
2022/03/23 04:59:14;;;;;;;13.17;9.90;;;;;;;;;;5098788;28;20476;-72
2022/03/23 05:01:42;;;;;;;15.73;10.47;;;;;;;;;;5111321;28;20459;-69
2022/03/23 05:04:09;;;;;;;15.60;10.50;;;;;;;;;;5106854;28;20452;-69
2022/03/23 05:06:36;;;;;;;16.20;10.17;;;;;;;;;;5091615;28;20459;-69
2022/03/23 05:09:03;;;;;;;16.00;9.80;;;;;;;;;;5099898;28;20459;-72
2022/03/23 05:11:32;;;;;;;17.13;11.40;;;;;;;;;;5101252;28;20536;-70
2022/03/23 05:13:59;;;;;;;16.60;10.60;;;;;;;;;;5102975;28;20448;-70
2022/03/23 05:16:26;;;;;;;18.20;11.57;;;;;;;;;;5105118;28;20454;-71
2022/03/23 05:18:53;;;;;;;13.33;10.03;;;;;;;;;;5112361;28;20451;-70
2022/03/23 05:21:20;;;;;;;13.70;10.03;;;;;;;;;;5099018;28;20543;-71
2022/03/23 05:23:47;;;;;;;16.90;10.97;;;;;;;;;;5098601;28;20455;-71
2022/03/23 05:26:14;;;;;;;20.30;12.47;;;;;;;;;;5111129;28;20443;-70
2022/03/23 05:28:43;;;;;;;19.83;10.73;;;;;;;;;;5111562;28;20801;-74
2022/03/23 05:31:10;;;;;;;16.33;11.67;;;;;;;;;;5111836;28;20584;-74
2022/03/23 05:33:38;;;;;;;20.53;11.20;;;;;;;;;;5111312;28;20477;-72
2022/03/23 05:36:05;;;;;;;17.63;12.67;;;;;;;;;;5097747;28;20531;-72
2022/03/23 05:38:32;;;;;;;17.07;11.53;;;;;;;;;;5111462;28;20776;-73
2022/03/23 05:40:59;;;;;;;17.67;11.87;;;;;;;;;;5111724;28;20882;-72
2022/03/23 05:43:27;;;;;;;17.73;11.50;;;;;;;;;;5106737;28;20446;-71
2022/03/23 05:45:55;;;;;;;14.70;9.87;;;;;;;;;;5107918;28;20865;-71
2022/03/23 05:48:22;;;;;;;15.90;10.83;;;;;;;;;;5112772;28;20484;-72
2022/03/23 05:50:50;;;;;;;15.73;10.47;;;;;;;;;;5111035;28;20500;-71
2022/03/23 05:53:17;;;;;;;20.03;11.60;;;;;;;;;;5115793;28;20935;-71
2022/03/23 05:55:44;;;;;;;18.50;10.23;;;;;;;;;;5114756;28;20482;-71
2022/03/23 05:58:11;;;;;;;23.33;11.70;;;;;;;;;;5114544;28;20444;-71
2022/03/23 06:00:38;;;;;;;15.83;10.73;;;;;;;;;;5112808;28;20526;-71
2022/03/23 06:03:07;;;;;;;18.00;11.17;;;;;;;;;;5111537;28;20570;-71
2022/03/23 06:05:34;;;;;;;16.20;11.27;;;;;;;;;;5110771;28;20891;-70
2022/03/23 06:08:01;;;;;;;16.13;11.10;;;;;;;;;;5111686;28;20452;-71
2022/03/23 06:10:29;;;;;;;15.70;10.97;;;;;;;;;;5110864;28;20920;-70
2022/03/23 06:12:56;;;;;;;19.10;12.23;;;;;;;;;;5110887;28;20515;-71
2022/03/23 06:15:23;;;;;;;19.50;10.97;;;;;;;;;;5111272;28;20538;-71
2022/03/23 06:17:50;;;;;;;15.37;10.37;;;;;;;;;;5110781;28;20446;-71
2022/03/23 06:20:19;;;;;;;17.27;11.77;;;;;;;;;;5110940;28;20575;-70
2022/03/23 06:22:46;;;;;;;19.77;12.03;;;;;;;;;;5110121;28;20513;-70
2022/03/23 06:25:13;;;;;;;19.63;12.00;;;;;;;;;;5111624;28;20870;-71
2022/03/23 06:27:40;;;;;;;19.23;13.10;;;;;;;;;;5110332;28;20451;-70
2022/03/23 06:30:08;;;;;;;15.17;11.90;;;;;;;;;;5111298;28;20527;-71
2022/03/23 06:32:36;;;;;;;20.00;11.80;;;;;;;;;;5110613;28;20924;-72
2022/03/23 06:35:03;;;;;;;17.77;12.50;;;;;;;;;;5110821;28;20450;-71
2022/03/23 06:37:31;;;;;;;17.10;11.67;;;;;;;;;;5110541;28;20475;-70
2022/03/23 06:39:59;;;;;;;19.57;12.97;;;;;;;;;;5110902;28;20475;-69
2022/03/23 06:42:27;;;;;;;18.90;12.70;;;;;;;;;;5111043;28;20869;-72
2022/03/23 06:44:54;;;;;;;20.67;12.07;;;;;;;;;;5110983;28;20452;-70
2022/03/23 06:47:21;;;;;;;19.33;11.70;;;;;;;;;;5111037;28;20463;-71
2022/03/23 06:49:48;;;;;;;16.80;12.30;;;;;;;;;;5110242;28;20483;-71
2022/03/23 06:52:17;;;;;;;18.97;11.77;;;;;;;;;;5110901;28;20486;-71
2022/03/23 06:54:46;;;;;;;19.43;11.57;;;;;;;;;;5109846;28;20468;-72
2022/03/23 06:57:13;;;;;;;15.70;11.50;;;;;;;;;;5110907;28;20512;-71
2022/03/23 06:59:40;;;;;;;21.77;11.77;;;;;;;;;;5110341;28;20487;-71
2022/03/23 07:02:08;;;;;;;20.57;12.60;;;;;;;;;;5113759;28;20448;-72
2022/03/23 07:04:35;;;;;;;19.10;13.00;;;;;;;;;;5113915;28;20872;-71
2022/03/23 07:07:02;;;;;;;18.30;11.70;;;;;;;;;;5114558;28;20445;-71
2022/03/23 07:09:31;;;;;;;20.37;13.33;;;;;;;;;;5114246;28;20450;-71
2022/03/23 07:12:00;;;;;;;22.07;12.67;;;;;;;;;;5114525;28;20555;-72
2022/03/23 07:14:29;;;;;;;15.37;10.93;;;;;;;;;;5114495;28;20505;-73
2022/03/23 07:16:56;;;;;;;22.83;14.03;;;;;;;;;;5114738;28;20454;-71
2022/03/23 07:19:23;;;;;;;20.63;12.47;;;;;;;;;;5114946;28;20538;-72
2022/03/23 07:21:50;;;;;;;20.93;11.70;;;;;;;;;;5113907;28;20444;-70
2022/03/23 07:24:18;;;;;;;20.67;13.33;;;;;;;;;;5113763;28;20945;-70
2022/03/23 07:26:45;;;;;;;20.00;12.80;;;;;;;;;;5113843;28;20531;-71
2022/03/23 07:29:15;;;;;;;21.70;13.20;;;;;;;;;;5114073;28;20539;-71
2022/03/23 07:31:43;;;;;;;20.47;14.37;;;;;;;;;;5113779;28;20483;-71
2022/03/23 07:34:10;;;;;;;20.33;12.17;;;;;;;;;;5113935;28;20444;-71
2022/03/23 07:36:38;;;;;;;20.53;13.20;;;;;;;;;;5113665;28;20439;-71
2022/03/23 07:39:05;;;;;;;18.17;12.40;;;;;;;;;;5113911;28;20920;-71
2022/03/23 07:41:32;;;;;;;21.50;14.30;;;;;;;;;;5099593;28;20501;-70
2022/03/23 07:43:59;;;;;;;20.97;13.27;;;;;;;;;;5113477;28;20542;-70
2022/03/23 07:46:29;;;;;;;20.97;14.10;;;;;;;;;;5100792;28;20530;-72
2022/03/23 07:48:56;;;;;;;21.33;13.80;;;;;;;;;;5114016;28;20448;-71
2022/03/23 07:51:23;;;;;;;22.77;14.20;;;;;;;;;;5114026;28;20530;-72
2022/03/23 07:53:50;;;;;;;26.30;15.50;;;;;;;;;;5112739;28;20542;-72
2022/03/23 07:56:17;;;;;;;22.97;14.17;;;;;;;;;;5113915;28;20560;-72
2022/03/23 07:58:44;;;;;;;23.60;14.70;;;;;;;;;;5112958;28;20460;-71
2022/03/23 08:01:11;;;;;;;25.57;15.97;;;;;;;;;;5113749;28;20443;-72
2022/03/23 08:03:41;;;;;;;24.20;15.17;;;;;;;;;;5112551;28;20880;-71
2022/03/23 08:06:08;;;;;;;22.40;15.90;;;;;;;;;;5114297;28;20443;-72
2022/03/23 08:08:35;;;;;;;21.63;14.93;;;;;;;;;;5112894;28;20447;-72
2022/03/23 08:11:02;;;;;;;21.67;14.67;;;;;;;;;;5113601;28;20444;-71
2022/03/23 08:13:30;;;;;;;22.80;15.10;;;;;;;;;;5111528;28;20479;-71
2022/03/23 08:15:57;;;;;;;19.47;13.80;;;;;;;;;;5113508;28;20469;-71
2022/03/23 08:18:25;;;;;;;23.27;15.23;;;;;;;;;;5113094;28;20932;-71
2022/03/23 08:20:53;;;;;;;21.80;16.60;;;;;;;;;;5102469;28;20534;-71
2022/03/23 08:23:21;;;;;;;22.50;15.40;;;;;;;;;;5112550;28;20454;-72
2022/03/23 08:25:48;;;;;;;23.87;15.40;;;;;;;;;;5112535;28;20733;-72
2022/03/23 08:28:15;;;;;;;20.60;14.33;;;;;;;;;;5112658;28;20458;-71
2022/03/23 08:30:44;;;;;;;20.00;14.40;;;;;;;;;;5112408;28;20530;-72
2022/03/23 08:33:11;;;;;;;19.80;14.43;;;;;;;;;;5112615;28;20475;-72
2022/03/23 08:35:39;;;;;;;21.57;15.60;;;;;;;;;;5112201;28;20475;-72
2022/03/23 08:38:07;;;;;;;20.40;14.63;;;;;;;;;;5112695;28;20448;-73
2022/03/23 08:40:35;;;;;;;22.37;14.70;;;;;;;;;;5112072;28;20440;-73
2022/03/23 08:43:02;;;;;;;18.53;13.47;;;;;;;;;;5111964;28;20452;-71
2022/03/23 08:45:30;;;;;;;18.80;14.03;;;;;;;;;;5112074;28;20458;-71
2022/03/23 08:47:57;;;;;;;24.27;15.00;;;;;;;;;;5112565;28;20517;-72
2022/03/23 08:50:25;;;;;;;20.97;14.67;;;;;;;;;;5112684;28;20500;-71
2022/03/23 08:52:53;;;;;;;19.07;15.03;;;;;;;;;;5111432;28;20514;-71
2022/03/23 08:55:23;;;;;;;20.10;14.73;;;;;;;;;;5112433;28;20479;-72
2022/03/23 08:57:50;;;;;;;21.43;15.33;;;;;;;;;;5098869;28;20934;-73
2022/03/23 09:00:18;;;;;;;22.43;15.33;;;;;;;;;;5112545;28;20444;-72
2022/03/23 09:02:45;;;;;;;23.50;16.10;;;;;;;;;;5111630;28;20447;-71
2022/03/23 09:05:14;;;;;;;30.33;16.47;;;;;;;;;;5112488;28;20444;-71
2022/03/23 09:07:41;;;;;;;31.67;17.97;;;;;;;;;;5111608;28;20452;-72
2022/03/23 09:10:09;;;;;;;22.43;15.63;;;;;;;;;;5112007;28;20450;-71
2022/03/23 09:12:38;;;;;;;26.40;14.73;;;;;;;;;;5111066;28;20538;-71
2022/03/23 09:15:06;;;;;;;24.67;16.03;;;;;;;;;;5111865;28;20472;-71
2022/03/23 09:17:33;;;;;;;23.13;15.47;;;;;;;;;;5111804;28;20447;-71
2022/03/23 09:20:01;;;;;;;26.57;16.17;;;;;;;;;;5111754;28;20940;-71
2022/03/23 09:22:28;;;;;;;23.10;14.87;;;;;;;;;;5111184;28;20448;-70
2022/03/23 09:24:56;;;;;;;21.73;14.77;;;;;;;;;;5110830;28;20455;-71
2022/03/23 09:27:23;;;;;;;25.23;15.10;;;;;;;;;;5111978;28;20440;-72
2022/03/23 09:29:51;;;;;;;22.70;15.30;;;;;;;;;;5111369;28;20579;-71
2022/03/23 09:32:18;;;;;;;24.23;16.03;;;;;;;;;;5111907;28;20490;-73
2022/03/23 09:34:46;;;;;;;17.10;14.50;;;;;;;;;;5110973;28;20531;-71
2022/03/23 09:39:58;;;;;;;22.00;15.27;;;;;;;;;;5098772;28;20538;-71
2022/03/23 09:42:27;;;;;;;19.60;14.90;;;;;;;;;;5111161;28;20789;-70
2022/03/23 09:44:56;;;;;;;20.80;14.17;;;;;;;;;;5111414;28;20451;-71
2022/03/23 09:47:24;;;;;;;21.67;14.80;;;;;;;;;;5111806;28;20439;-72
2022/03/23 09:49:51;;;;;;;22.23;16.10;;;;;;;;;;5111146;28;20439;-71
2022/03/23 09:52:18;;;;;;;23.67;15.70;;;;;;;;;;5111239;28;20480;-71
2022/03/23 09:54:46;;;;;;;19.77;15.50;;;;;;;;;;5110307;28;20579;-71
2022/03/23 09:57:14;;;;;;;21.17;14.13;;;;;;;;;;5111474;28;20448;-71
2022/03/23 09:59:41;;;;;;;21.83;15.10;;;;;;;;;;5111100;28;20500;-71
2022/03/23 10:02:26;;;;;;;19.83;14.40;;;;;;;;;;5111663;28;20534;-71
2022/03/23 10:05:08;;;;;;;18.70;14.20;;;;;;;;;;5111845;28;20524;-72
2022/03/23 10:07:39;;;;;;;16.87;13.67;;;;;;;;;;5066723;28;20450;-71
2022/03/23 10:10:24;;;;;;;16.73;13.90;;;;;;;;;;5111341;28;20501;-71
2022/03/23 10:13:21;;;;;;;13.67;12.10;;;;;;;;;;5110076;28;20479;-72
2022/03/23 10:16:03;;;;;;;16.60;12.03;;;;;;;;;;5110906;28;20863;-72
2022/03/23 10:18:46;;;;;;;13.00;10.83;;;;;;;;;;5110719;28;20439;-72
2022/03/23 10:21:14;;;;;;;15.50;11.90;;;;;;;;;;5111456;28;20447;-72
2022/03/23 10:23:51;;;;;;;14.70;11.90;;;;;;;;;;5110308;28;20505;-72
2022/03/23 10:26:18;;;;;;;14.03;11.47;;;;;;;;;;5111341;28;20562;-72
2022/03/23 10:28:45;;;;;;;17.10;12.57;;;;;;;;;;5110335;28;20535;-72
2022/03/23 10:31:16;;;;;;;13.23;11.43;;;;;;;;;;5111175;28;20467;-72
2022/03/23 10:33:44;;;;;;;17.37;11.90;;;;;;;;;;5110160;28;20587;-73
2022/03/23 10:36:12;;;;;;;14.10;11.10;;;;;;;;;;5112757;28;20459;-72
2022/03/23 10:38:40;;;;;;;15.30;11.70;;;;;;;;;;5114854;28;20444;-72
2022/03/23 10:41:12;;;;;;;12.00;10.80;;;;;;;;;;5114960;28;20444;-71
2022/03/23 10:43:40;;;;;;;12.13;10.73;;;;;;;;;;5113873;28;21006;-72
2022/03/23 10:46:10;;;;;;;13.77;10.60;;;;;;;;;;5115045;28;20449;-72
2022/03/23 10:48:38;;;;;;;13.47;11.83;;;;;;;;;;5114569;28;20439;-72
2022/03/23 10:51:06;;;;;;;16.07;11.10;;;;;;;;;;5114967;28;20450;-72
2022/03/23 10:53:35;;;;;;;28.17;13.60;;;;;;;;;;5113605;28;20652;-72
2022/03/23 10:56:03;;;;;;;12.43;11.13;;;;;;;;;;5114467;28;20486;-73
2022/03/23 10:58:32;;;;;;;11.50;9.90;;;;;;;;;;5114257;28;20802;-71
2022/03/23 11:01:00;;;;;;;10.17;9.17;;;;;;;;;;5115113;28;20486;-73
2022/03/23 11:03:41;;;;;;;11.50;10.03;;;;;;;;;;5114046;28;20451;-70
2022/03/23 11:06:09;;;;;;;12.63;9.27;;;;;;;;;;5103366;28;20850;-71
2022/03/23 11:08:36;;;;;;;10.87;9.83;;;;;;;;;;5114031;28;20439;-73
2022/03/23 11:16:40;;;;;;;9.53;8.43;;;;;;;;;;5113986;28;20486;-72
2022/03/23 11:19:09;;;;;;;9.40;8.50;;;;;;;;;;5114537;28;20444;-72
2022/03/23 11:21:57;;;;;;;10.37;9.23;;;;;;;;;;5113480;28;20448;-72
2022/03/23 11:24:24;;;;;;;14.87;9.60;;;;;;;;;;5114343;28;20504;-72
2022/03/23 11:26:51;;;;;;;11.87;9.63;;;;;;;;;;5113986;28;20934;-71
2022/03/23 11:29:20;;;;;;;9.07;8.17;;;;;;;;;;5113919;28;20454;-72
2022/03/23 11:31:47;;;;;;;13.60;8.67;;;;;;;;;;5113748;28;20448;-72
2022/03/23 11:34:16;;;;;;;10.67;9.57;;;;;;;;;;5113902;28;20505;-71
2022/03/23 11:36:43;;;;;;;11.83;10.73;;;;;;;;;;5113703;28;20778;-72
2022/03/23 11:39:12;;;;;;;11.40;8.93;;;;;;;;;;5113763;28;20444;-72
2022/03/23 11:41:41;;;;;;;9.47;8.57;;;;;;;;;;5113390;28;20810;-72
2022/03/23 11:44:10;;;;;;;12.00;8.90;;;;;;;;;;5113066;28;20466;-72
2022/03/23 11:46:38;;;;;;;8.83;7.97;;;;;;;;;;5113348;28;20436;-72
2022/03/23 11:49:13;;;;;;;10.23;8.63;;;;;;;;;;5113010;28;20447;-73
2022/03/23 11:51:55;;;;;;;9.97;8.97;;;;;;;;;;5113435;28;20864;-73
2022/03/23 11:54:25;;;;;;;9.50;7.30;;;;;;;;;;5112947;28;20501;-72
2022/03/23 11:56:56;;;;;;;8.90;8.00;;;;;;;;;;5113344;28;20526;-72
2022/03/23 11:59:24;;;;;;;10.70;8.23;;;;;;;;;;5100571;28;20448;-73
2022/03/23 12:01:53;;;;;;;9.03;8.03;;;;;;;;;;5112903;28;20440;-72
2022/03/23 12:04:21;;;;;;;10.63;8.50;;;;;;;;;;5113475;28;20443;-71
2022/03/23 12:06:57;;;;;;;9.60;7.57;;;;;;;;;;5112488;28;20903;-73
2022/03/23 12:09:34;;;;;;;11.90;8.70;;;;;;;;;;5113468;28;20995;-72
2022/03/23 12:12:02;;;;;;;9.60;8.60;;;;;;;;;;5113892;28;20439;-72
2022/03/23 12:14:31;;;;;;;9.67;8.73;;;;;;;;;;5112388;28;20493;-71
2022/03/23 12:17:03;;;;;;;8.50;7.70;;;;;;;;;;5113589;28;20455;-72
2022/03/23 12:19:31;;;;;;;10.67;9.47;;;;;;;;;;5113014;28;20467;-71
2022/03/23 12:22:01;;;;;;;8.50;7.60;;;;;;;;;;5113522;28;20828;-71
2022/03/23 12:24:34;;;;;;;9.77;8.00;;;;;;;;;;5112868;28;20454;-70
2022/03/23 12:27:05;;;;;;;7.43;6.73;;;;;;;;;;5100620;28;20448;-71
2022/03/23 12:29:36;;;;;;;7.13;6.40;;;;;;;;;;5112383;28;20955;-72
2022/03/23 12:32:06;;;;;;;9.17;8.17;;;;;;;;;;5113483;28;20538;-72
2022/03/23 12:34:33;;;;;;;9.40;8.50;;;;;;;;;;5112415;28;20562;-72
2022/03/23 12:37:08;;;;;;;9.00;7.87;;;;;;;;;;5112666;28;20503;-72
2022/03/23 12:39:39;;;;;;;9.33;7.43;;;;;;;;;;5112510;28;20488;-72
2022/03/23 12:42:34;;;;;;;10.40;7.40;;;;;;;;;;5113257;28;20562;-72
2022/03/23 12:45:09;;;;;;;8.47;7.60;;;;;;;;;;5045842;28;20971;-72
2022/03/23 12:47:40;;;;;;;12.47;8.80;;;;;;;;;;5108839;28;20951;-73
2022/03/23 12:58:27;;;;;;;14.40;9.90;;;;;;;;;;5112477;28;20944;-71
2022/03/23 13:00:55;;;;;;;8.90;8.00;;;;;;;;;;5113037;28;20963;-72
2022/03/23 13:03:41;;;;;;;11.60;8.40;;;;;;;;;;5113908;28;20535;-73
2022/03/23 13:06:12;;;;;;;8.50;7.60;;;;;;;;;;5114563;28;20520;-72
2022/03/23 13:08:46;;;;;;;9.83;8.73;;;;;;;;;;5113947;28;20531;-72
2022/03/23 13:11:13;;;;;;;10.77;9.63;;;;;;;;;;5114763;28;20439;-71
2022/03/23 13:13:41;;;;;;;10.20;9.10;;;;;;;;;;5112748;28;20487;-72
2022/03/23 13:16:10;;;;;;;13.00;9.03;;;;;;;;;;5113427;28;20443;-72
2022/03/23 13:18:37;;;;;;;12.43;10.27;;;;;;;;;;5111863;28;20470;-73
2022/03/23 13:21:08;;;;;;;10.40;9.30;;;;;;;;;;5112149;28;20448;-72
2022/03/23 13:23:37;;;;;;;10.90;8.83;;;;;;;;;;5111004;28;20443;-72
2022/03/23 13:26:04;;;;;;;12.17;9.80;;;;;;;;;;5112168;28;20452;-72
2022/03/23 13:28:33;;;;;;;10.33;8.63;;;;;;;;;;5111255;28;20451;-72
2022/03/23 13:31:00;;;;;;;9.37;8.40;;;;;;;;;;5111926;28;20444;-72
2022/03/23 13:33:35;;;;;;;9.43;8.07;;;;;;;;;;5111826;28;20486;-72
2022/03/23 13:36:03;;;;;;;9.67;8.57;;;;;;;;;;5112371;28;20527;-72
2022/03/23 13:38:34;;;;;;;8.33;7.63;;;;;;;;;;5103017;28;20445;-72
2022/03/23 13:43:52;;;;;;;13.57;8.17;;;;;;;;;;5110723;28;21074;-73
2022/03/23 13:46:19;;;;;;;10.20;7.80;;;;;;;;;;5112165;28;20795;-73
2022/03/23 13:48:53;;;;;;;9.27;8.37;;;;;;;;;;5111421;28;20802;-73
2022/03/23 13:51:20;;;;;;;10.63;8.10;;;;;;;;;;5098821;28;20448;-73
2022/03/23 13:53:48;;;;;;;10.20;7.67;;;;;;;;;;5110411;28;21216;-73
2022/03/23 13:56:18;;;;;;;9.07;8.17;;;;;;;;;;5111539;28;20620;-72
2022/03/23 13:58:45;;;;;;;9.90;8.90;;;;;;;;;;5111025;28;20509;-72
2022/03/23 14:01:12;;;;;;;10.63;8.23;;;;;;;;;;5111621;28;20459;-72
2022/03/23 14:03:40;;;;;;;10.80;8.90;;;;;;;;;;5110633;28;20443;-73
2022/03/23 14:06:08;;;;;;;12.20;9.17;;;;;;;;;;5112062;28;20452;-73
2022/03/23 14:08:36;;;;;;;10.90;9.37;;;;;;;;;;5110796;28;20960;-73
2022/03/23 14:11:03;;;;;;;10.27;9.17;;;;;;;;;;5111014;28;20452;-72
2022/03/23 14:13:38;;;;;;;11.10;10.00;;;;;;;;;;5109968;28;20939;-72
2022/03/23 14:16:06;;;;;;;10.50;9.40;;;;;;;;;;5111337;28;20500;-72
2022/03/23 14:18:33;;;;;;;8.93;8.03;;;;;;;;;;5110823;28;20447;-72
2022/03/23 14:21:01;;;;;;;13.13;9.10;;;;;;;;;;5111102;28;20923;-71
2022/03/23 14:23:29;;;;;;;9.63;8.23;;;;;;;;;;5110277;28;20444;-71
2022/03/23 14:25:56;;;;;;;10.07;9.07;;;;;;;;;;5111322;28;20873;-72
2022/03/23 14:28:25;;;;;;;13.67;9.87;;;;;;;;;;5111319;28;20446;-72
2022/03/23 14:30:59;;;;;;;12.90;9.03;;;;;;;;;;5110306;28;20440;-72
2022/03/23 14:33:28;;;;;;;9.40;8.37;;;;;;;;;;5110740;28;20434;-73
2022/03/23 14:35:55;;;;;;;11.13;9.57;;;;;;;;;;5111105;28;20928;-73
2022/03/23 14:38:25;;;;;;;10.93;9.83;;;;;;;;;;5111579;28;20444;-73
2022/03/23 14:40:52;;;;;;;11.90;9.47;;;;;;;;;;5110717;28;20447;-73
2022/03/23 14:43:27;;;;;;;10.80;9.50;;;;;;;;;;5110589;28;20455;-72
2022/03/23 14:45:54;;;;;;;11.73;10.47;;;;;;;;;;5111205;28;20446;-73
2022/03/23 14:48:23;;;;;;;10.97;9.97;;;;;;;;;;5111016;28;20435;-73
2022/03/23 14:50:52;;;;;;;10.73;9.47;;;;;;;;;;5106743;28;20970;-73
2022/03/23 14:53:20;;;;;;;11.10;10.00;;;;;;;;;;5110831;28;20443;-71
2022/03/23 14:55:48;;;;;;;11.43;9.77;;;;;;;;;;5110542;28;20787;-72
2022/03/23 14:58:25;;;;;;;11.40;10.20;;;;;;;;;;5111009;28;20440;-72
2022/03/23 15:00:53;;;;;;;11.97;10.00;;;;;;;;;;5110694;28;20771;-72
2022/03/23 15:03:20;;;;;;;11.90;10.80;;;;;;;;;;5110425;28;20943;-72